Time;durP1;ratioP1;P1;durP2;ratioP2;P2;SDS_P1;SDS_P2;PMS_P1;PMS_P2;Temp;Humidity;BMP_temperature;BMP_pressure;BME280_temperature;BME280_humidity;BME280_pressure;Samples;Min_cycle;Max_cycle;Signal;HPM_P1;HPM_P2
2021/06/14 00:00:11;;;;;;;10.65;4.78;;;14.70;99.90;;;;;;4978664;28;20050;-83
2021/06/14 00:02:38;;;;;;;9.88;4.05;;;14.80;99.90;;;;;;4978498;28;20047;-83
2021/06/14 00:05:07;;;;;;;7.07;3.95;;;14.80;99.90;;;;;;4979125;28;20532;-83
2021/06/14 00:07:33;;;;;;;10.13;3.85;;;14.80;99.90;;;;;;4978503;28;20088;-83
2021/06/14 00:09:59;;;;;;;7.63;4.03;;;14.70;99.90;;;;;;4979432;28;20042;-83
2021/06/14 00:12:24;;;;;;;9.52;4.03;;;14.70;99.90;;;;;;4983049;28;20039;-83
2021/06/14 00:14:52;;;;;;;6.47;4.45;;;14.70;99.90;;;;;;4980956;28;20047;-83
2021/06/14 00:17:18;;;;;;;7.90;5.07;;;14.70;99.90;;;;;;4980558;28;20038;-83
2021/06/14 00:19:48;;;;;;;14.05;5.35;;;14.70;99.90;;;;;;4983368;28;20035;-83
2021/06/14 00:22:14;;;;;;;7.75;4.18;;;14.70;99.90;;;;;;4980734;28;20053;-83
2021/06/14 00:24:40;;;;;;;6.15;4.10;;;14.60;99.90;;;;;;4980838;28;20039;-83
2021/06/14 00:27:06;;;;;;;8.88;4.45;;;14.80;99.90;;;;;;4981864;28;20109;-84
2021/06/14 00:29:32;;;;;;;6.97;4.05;;;14.60;99.90;;;;;;4981202;28;20031;-83
2021/06/14 00:31:57;;;;;;;10.75;4.20;;;14.60;99.90;;;;;;4976789;28;20046;-83
2021/06/14 00:34:23;;;;;;;7.55;4.15;;;14.60;99.90;;;;;;4978747;28;20038;-83
2021/06/14 00:36:49;;;;;;;8.30;3.97;;;14.60;99.90;;;;;;4976760;28;21571;-83
2021/06/14 00:39:15;;;;;;;6.00;4.65;;;14.80;99.90;;;;;;4977157;28;20067;-83
2021/06/14 00:41:40;;;;;;;8.93;4.50;;;14.60;99.90;;;;;;4977684;28;20061;-83
2021/06/14 00:44:07;;;;;;;8.98;4.72;;;14.50;99.90;;;;;;4978574;28;20045;-83
2021/06/14 00:46:32;;;;;;;9.68;4.50;;;14.50;99.90;;;;;;4978953;28;20041;-83
2021/06/14 00:48:58;;;;;;;8.15;4.13;;;14.50;99.90;;;;;;4981458;28;20039;-83
2021/06/14 00:51:23;;;;;;;7.03;3.85;;;14.70;99.90;;;;;;4977390;28;20049;-83
2021/06/14 00:53:56;;;;;;;4.82;3.20;;;14.50;99.90;;;;;;4980369;28;20039;-83
2021/06/14 00:56:38;;;;;;;9.35;3.42;;;14.60;99.90;;;;;;4962697;28;20085;-83
2021/06/14 00:59:11;;;;;;;7.85;3.83;;;14.50;99.90;;;;;;4979281;28;20050;-83
2021/06/14 01:02:13;;;;;;;8.35;4.20;;;14.40;99.90;;;;;;4960473;28;20054;-83
2021/06/14 01:05:43;;;;;;;6.15;4.00;;;14.40;99.90;;;;;;4954028;28;20047;-83
2021/06/14 01:08:56;;;;;;;7.90;4.32;;;14.40;99.90;;;;;;4963209;28;20315;-83
2021/06/14 01:11:41;;;;;;;12.02;4.65;;;14.30;99.90;;;;;;4977053;28;20053;-83
2021/06/14 01:14:31;;;;;;;6.47;4.68;;;14.40;99.90;;;;;;4978289;28;20043;-83
2021/06/14 01:17:16;;;;;;;11.60;4.97;;;14.30;99.90;;;;;;4975486;28;20458;-83
2021/06/14 01:20:17;;;;;;;8.48;4.35;;;14.30;99.90;;;;;;4981374;28;20112;-83
2021/06/14 01:23:17;;;;;;;7.20;4.55;;;14.30;99.90;;;;;;4980047;28;20803;-83
2021/06/14 01:25:48;;;;;;;9.68;5.15;;;14.30;99.90;;;;;;4978879;28;20062;-83
2021/06/14 01:28:54;;;;;;;9.80;4.80;;;14.20;99.90;;;;;;4979191;28;20050;-83
2021/06/14 01:31:53;;;;;;;8.57;4.88;;;14.20;99.90;;;;;;4955501;28;20113;-84
2021/06/14 01:34:54;;;;;;;9.25;5.07;;;14.20;99.90;;;;;;4957805;28;20494;-83
2021/06/14 01:37:22;;;;;;;10.32;5.07;;;14.20;99.90;;;;;;4976118;28;20053;-83
2021/06/14 01:40:10;;;;;;;11.50;5.40;;;14.20;99.90;;;;;;4976901;28;20629;-84
2021/06/14 01:42:40;;;;;;;12.70;5.25;;;14.20;99.90;;;;;;4974033;28;20046;-84
2021/06/14 01:45:07;;;;;;;10.80;5.07;;;14.20;99.90;;;;;;4978583;28;20784;-83
2021/06/14 01:47:32;;;;;;;11.93;5.25;;;14.20;99.90;;;;;;4975657;28;20061;-83
2021/06/14 01:50:00;;;;;;;11.75;5.70;;;14.10;99.90;;;;;;4975597;28;20045;-83
2021/06/14 01:52:26;;;;;;;10.95;5.57;;;14.20;99.90;;;;;;4977491;28;20096;-83
2021/06/14 01:54:53;;;;;;;9.43;5.00;;;14.30;99.90;;;;;;4980010;28;20046;-83
2021/06/14 01:57:18;;;;;;;11.45;5.65;;;14.10;99.90;;;;;;4979190;28;20043;-83
2021/06/14 01:59:46;;;;;;;12.02;6.03;;;14.10;99.90;;;;;;4979554;28;20046;-83
2021/06/14 02:02:14;;;;;;;8.48;5.82;;;14.10;99.90;;;;;;4977251;28;20133;-83
2021/06/14 02:04:44;;;;;;;10.50;6.05;;;14.10;99.90;;;;;;4976421;28;20042;-84
2021/06/14 02:07:11;;;;;;;10.77;5.78;;;14.10;99.90;;;;;;4976357;28;20118;-83
2021/06/14 02:09:38;;;;;;;15.13;6.20;;;14.10;99.90;;;;;;4976851;28;20045;-83
2021/06/14 02:12:08;;;;;;;12.18;6.13;;;14.00;99.90;;;;;;4947557;28;20138;-83
2021/06/14 02:14:40;;;;;;;11.23;6.53;;;14.00;99.90;;;;;;4981967;28;20482;-83
2021/06/14 02:17:12;;;;;;;11.15;6.18;;;14.30;99.90;;;;;;4974603;28;20042;-83
2021/06/14 02:19:46;;;;;;;10.38;5.70;;;13.80;99.90;;;;;;4964799;28;20057;-83
2021/06/14 02:22:14;;;;;;;13.98;6.13;;;14.10;99.90;;;;;;4978006;28;20058;-83
2021/06/14 02:24:43;;;;;;;9.88;6.43;;;14.00;99.90;;;;;;4976437;28;20117;-83
2021/06/14 02:27:15;;;;;;;11.88;6.60;;;14.00;99.90;;;;;;4963208;28;20081;-83
2021/06/14 02:29:44;;;;;;;10.20;6.05;;;14.10;99.90;;;;;;4961572;28;20153;-83
2021/06/14 02:32:11;;;;;;;11.85;5.75;;;14.00;99.90;;;;;;4976618;28;20076;-83
2021/06/14 02:34:42;;;;;;;14.65;7.55;;;14.00;99.90;;;;;;4977432;28;20048;-83
2021/06/14 02:37:09;;;;;;;11.75;6.82;;;14.00;99.90;;;;;;4979347;28;20030;-83
2021/06/14 02:39:39;;;;;;;12.32;6.22;;;14.00;99.90;;;;;;4967096;28;20055;-83
2021/06/14 02:42:07;;;;;;;9.15;6.18;;;14.00;99.90;;;;;;4964241;28;20198;-83
2021/06/14 02:44:35;;;;;;;9.43;6.63;;;14.00;99.90;;;;;;4994440;28;20038;-83
2021/06/14 02:47:13;;;;;;;15.00;6.35;;;14.00;99.90;;;;;;4975991;28;20173;-83
2021/06/14 02:49:44;;;;;;;15.85;6.97;;;14.00;99.90;;;;;;4982992;28;20078;-83
2021/06/14 02:52:18;;;;;;;8.75;5.70;;;14.00;99.90;;;;;;4974211;28;20538;-83
2021/06/14 02:55:20;;;;;;;12.25;6.68;;;14.00;99.90;;;;;;4977245;28;20046;-83
2021/06/14 02:57:53;;;;;;;11.65;6.18;;;14.00;99.90;;;;;;4974305;28;20050;-83
2021/06/14 03:00:28;;;;;;;15.27;6.35;;;14.00;99.90;;;;;;4977514;28;20047;-83
2021/06/14 03:03:08;;;;;;;14.07;7.72;;;13.90;99.90;;;;;;4978377;28;20061;-82
2021/06/14 03:05:36;;;;;;;14.05;7.00;;;14.10;99.90;;;;;;4968036;28;20051;-83
2021/06/14 03:08:05;;;;;;;9.80;6.55;;;14.00;99.90;;;;;;4965576;28;20518;-83
2021/06/14 03:10:38;;;;;;;10.32;6.82;;;13.90;99.90;;;;;;4984357;28;20558;-84
2021/06/14 03:13:06;;;;;;;9.25;6.75;;;14.00;99.90;;;;;;4964979;28;20057;-83
2021/06/14 03:15:37;;;;;;;12.07;7.07;;;14.00;99.90;;;;;;4967992;28;20137;-83
2021/06/14 03:18:06;;;;;;;14.50;6.25;;;14.00;99.90;;;;;;4980383;28;20048;-83
2021/06/14 03:20:34;;;;;;;9.55;6.78;;;14.00;99.90;;;;;;4963977;28;20487;-83
2021/06/14 03:23:00;;;;;;;10.45;6.40;;;13.90;99.90;;;;;;4981364;28;20042;-83
2021/06/14 03:25:26;;;;;;;12.85;6.43;;;13.90;99.90;;;;;;4979137;28;20043;-84
2021/06/14 03:27:53;;;;;;;14.35;6.85;;;14.40;99.90;;;;;;4982274;28;20034;-84
2021/06/14 03:30:20;;;;;;;10.35;7.05;;;13.80;99.90;;;;;;4978527;28;20039;-84
2021/06/14 03:32:48;;;;;;;11.45;7.28;;;13.90;99.90;;;;;;4983096;28;20687;-83
2021/06/14 03:35:19;;;;;;;10.70;6.57;;;14.40;99.90;;;;;;4983237;28;20050;-83
2021/06/14 03:37:46;;;;;;;11.95;6.75;;;14.40;99.90;;;;;;4981988;28;20041;-83
2021/06/14 03:40:14;;;;;;;11.63;6.93;;;13.80;99.90;;;;;;4980897;28;20047;-83
2021/06/14 03:42:40;;;;;;;11.18;7.10;;;13.80;99.90;;;;;;4984202;28;20462;-83
2021/06/14 03:45:07;;;;;;;9.73;6.35;;;13.80;99.90;;;;;;4981794;28;20059;-83
2021/06/14 03:47:34;;;;;;;12.35;7.10;;;13.90;99.90;;;;;;4984419;28;20196;-83
2021/06/14 03:49:59;;;;;;;15.48;8.35;;;13.90;99.90;;;;;;4980048;28;20039;-83
2021/06/14 03:52:25;;;;;;;13.20;8.85;;;13.90;99.90;;;;;;4980403;28;20514;-83
2021/06/14 03:54:51;;;;;;;14.77;8.35;;;14.00;99.90;;;;;;4983375;28;20796;-82
2021/06/14 03:57:17;;;;;;;13.98;8.73;;;14.10;99.90;;;;;;4983063;28;20453;-83
2021/06/14 03:59:42;;;;;;;14.30;8.25;;;14.10;99.90;;;;;;4983203;28;20042;-84
2021/06/14 04:02:08;;;;;;;16.00;8.18;;;14.10;99.90;;;;;;4983346;28;20042;-84
2021/06/14 04:04:41;;;;;;;12.90;8.98;;;14.10;99.90;;;;;;4984214;28;20069;-84
2021/06/14 04:07:07;;;;;;;11.93;8.10;;;14.30;99.90;;;;;;4985094;28;20042;-84
2021/06/14 04:09:34;;;;;;;15.88;8.52;;;14.20;99.90;;;;;;4986436;28;20038;-84
2021/06/14 04:12:48;;;;;;;11.63;7.30;;;14.40;99.90;;;;;;4983221;28;20049;-84
2021/06/14 04:15:17;;;;;;;13.77;8.13;;;14.50;99.90;;;;;;4981483;28;20046;-84
2021/06/14 04:18:32;;;;;;;16.33;7.85;;;15.10;99.90;;;;;;4986050;28;20847;-84
2021/06/14 04:21:57;;;;;;;11.73;7.45;;;14.80;99.90;;;;;;4971478;28;20475;-84
2021/06/14 04:24:41;;;;;;;16.02;8.02;;;14.90;99.90;;;;;;4984738;28;20125;-84
2021/06/14 04:27:31;;;;;;;13.38;8.55;;;15.00;99.90;;;;;;4983886;28;20076;-84
2021/06/14 04:30:44;;;;;;;15.48;7.53;;;15.10;99.90;;;;;;4984711;28;20050;-84
2021/06/14 04:33:27;;;;;;;14.10;7.95;;;15.10;99.90;;;;;;4978656;28;20566;-83
2021/06/14 04:36:17;;;;;;;19.48;8.60;;;15.20;99.90;;;;;;4983864;28;20461;-84
2021/06/14 04:38:42;;;;;;;14.52;7.63;;;15.30;99.90;;;;;;4997537;28;20046;-82
2021/06/14 04:41:09;;;;;;;20.45;7.53;;;15.50;99.90;;;;;;4985583;28;20046;-84
2021/06/14 04:43:35;;;;;;;18.67;8.75;;;16.00;99.70;;;;;;4983925;28;20034;-85
2021/06/14 04:46:06;;;;;;;12.93;7.53;;;16.00;99.20;;;;;;4984707;28;20045;-85
2021/06/14 04:48:32;;;;;;;16.38;8.70;;;16.40;98.50;;;;;;4985451;28;20127;-84
2021/06/14 04:50:58;;;;;;;17.50;8.02;;;16.80;97.60;;;;;;4990457;28;20038;-85
2021/06/14 04:53:24;;;;;;;10.90;7.53;;;17.40;96.90;;;;;;4981599;28;20038;-86
2021/06/14 04:55:50;;;;;;;17.20;6.63;;;18.30;95.90;;;;;;4983333;28;20046;-85
2021/06/14 04:58:15;;;;;;;10.77;5.65;;;19.70;94.30;;;;;;4986051;28;20039;-86
2021/06/14 05:00:41;;;;;;;10.48;6.47;;;20.60;91.60;;;;;;4987474;28;20038;-87
2021/06/14 05:03:07;;;;;;;9.50;6.25;;;21.30;89.10;;;;;;4985582;28;20145;-87
2021/06/14 05:05:33;;;;;;;18.33;6.95;;;21.60;84.90;;;;;;4987018;28;20039;-87
2021/06/14 05:07:59;;;;;;;11.05;6.75;;;21.60;83.80;;;;;;4982379;28;20044;-87
2021/06/14 05:10:24;;;;;;;12.27;6.25;;;21.40;84.40;;;;;;4987187;28;20115;-84
2021/06/14 05:12:50;;;;;;;12.00;6.53;;;21.20;84.00;;;;;;4989572;28;20034;-87
2021/06/14 05:15:17;;;;;;;9.43;5.90;;;21.20;85.40;;;;;;4986726;28;20695;-87
2021/06/14 05:17:43;;;;;;;17.00;6.50;;;20.90;86.30;;;;;;4986025;28;20108;-85
2021/06/14 05:20:09;;;;;;;8.80;5.38;;;20.90;86.20;;;;;;4983232;28;20030;-87
2021/06/14 05:22:34;;;;;;;7.78;5.88;;;21.00;85.00;;;;;;4978737;28;20101;-86
2021/06/14 05:25:00;;;;;;;11.38;6.63;;;21.00;85.30;;;;;;4978946;28;20039;-84
2021/06/14 05:27:26;;;;;;;8.50;5.55;;;21.10;85.00;;;;;;4981390;28;20046;-84
2021/06/14 05:29:51;;;;;;;9.90;5.85;;;21.30;85.30;;;;;;4996355;28;20068;-84
2021/06/14 05:32:17;;;;;;;7.32;5.65;;;21.40;84.40;;;;;;4978299;28;20400;-85
2021/06/14 05:34:43;;;;;;;8.07;5.13;;;21.50;82.00;;;;;;4977811;28;20095;-84
2021/06/14 05:37:09;;;;;;;8.13;5.90;;;21.60;81.00;;;;;;4980843;28;20677;-86
2021/06/14 05:43:01;;;;;;;10.90;5.97;;;21.80;79.90;;;;;;4920479;28;20044;-86
2021/06/14 05:45:32;;;;;;;10.63;6.90;;;22.20;78.70;;;;;;4979833;28;20055;-87
2021/06/14 05:47:58;;;;;;;9.70;5.10;;;22.00;77.10;;;;;;4979259;28;20042;-86
2021/06/14 05:50:23;;;;;;;12.95;5.07;;;22.00;75.60;;;;;;4981654;28;20117;-86
2021/06/14 05:52:49;;;;;;;8.57;5.18;;;22.00;76.30;;;;;;4982123;28;20053;-83
2021/06/14 05:55:15;;;;;;;9.88;5.30;;;22.00;77.00;;;;;;4978686;28;20318;-86
2021/06/14 05:57:41;;;;;;;9.77;4.20;;;22.10;77.10;;;;;;4978150;28;20042;-85
2021/06/14 06:00:09;;;;;;;8.15;4.22;;;22.60;75.00;;;;;;4977134;28;20550;-86
2021/06/14 06:02:34;;;;;;;7.40;4.90;;;22.30;73.50;;;;;;4976641;28;20053;-86
2021/06/14 06:09:52;;;;;;;8.23;4.38;;;22.40;74.00;;;;;;4936970;28;20073;-85
2021/06/14 07:24:12;;;;;;;10.30;3.95;;;24.70;59.60;;;;;;4733813;30;20130;-87
2021/06/14 07:31:29;;;;;;;6.85;3.67;;;24.90;59.80;;;;;;4740705;30;20038;-87
2021/06/14 07:34:37;;;;;;;7.80;4.50;;;24.90;60.80;;;;;;4742371;30;20063;-87
2021/06/14 07:38:03;;;;;;;;;;;25.00;58.10;;;;;;4720295;30;20577;-87
2021/06/14 07:41:24;;;;;;;14.15;4.20;;;25.00;58.20;;;;;;4738710;30;20021;-87
2021/06/14 07:47:31;;;;;;;10.90;3.95;;;25.20;56.50;;;;;;4710535;30;19953;-88
2021/06/14 07:50:07;;;;;;;9.90;4.05;;;25.20;56.80;;;;;;4726044;30;20103;-87
2021/06/14 07:52:35;;;;;;;11.95;3.90;;;25.10;55.90;;;;;;4778142;28;20547;-87
2021/06/14 07:55:01;;;;;;;10.48;4.28;;;25.20;57.70;;;;;;4984243;28;20434;-89
2021/06/14 07:57:27;;;;;;;12.10;3.95;;;25.50;58.40;;;;;;4979666;28;20096;-86
2021/06/14 07:59:52;;;;;;;10.20;4.45;;;25.40;57.10;;;;;;4982339;28;20384;-87
2021/06/14 08:02:18;;;;;;;12.93;4.80;;;25.50;56.30;;;;;;4981174;28;20117;-87
2021/06/14 08:04:45;;;;;;;12.73;3.80;;;25.50;55.50;;;;;;4978534;28;20469;-87
2021/06/14 08:07:11;;;;;;;8.02;4.63;;;25.60;55.50;;;;;;4981094;28;20109;-86
2021/06/14 08:09:37;;;;;;;12.05;4.53;;;25.50;55.50;;;;;;4980446;28;20585;-87
2021/06/14 08:12:04;;;;;;;10.65;3.95;;;25.60;55.90;;;;;;4979668;28;20054;-87
2021/06/14 08:14:30;;;;;;;13.10;3.95;;;25.50;56.30;;;;;;4979765;28;20043;-86
2021/06/14 08:16:56;;;;;;;11.20;4.05;;;25.30;55.50;;;;;;4967526;28;20038;-87
2021/06/14 08:19:43;;;;;;;17.08;4.22;;;25.60;57.20;;;;;;4983978;28;20156;-86
2021/06/14 08:25:07;;;;;;;13.00;4.22;;;25.50;55.60;;;;;;4977934;28;20522;-86
2021/06/14 08:27:38;;;;;;;15.32;5.05;;;25.90;55.00;;;;;;4978378;28;20047;-86
2021/06/14 08:30:08;;;;;;;16.50;4.70;;;25.90;54.30;;;;;;4978578;28;20079;-87
2021/06/14 08:32:36;;;;;;;6.88;3.50;;;25.90;54.70;;;;;;4979524;28;20090;-86
2021/06/14 08:35:03;;;;;;;8.82;4.20;;;26.10;54.00;;;;;;4979467;28;20037;-87
2021/06/14 08:37:29;;;;;;;7.47;3.58;;;26.10;53.80;;;;;;4981823;28;20045;-86
2021/06/14 08:39:55;;;;;;;14.10;4.70;;;26.20;52.90;;;;;;4980992;28;20039;-86
2021/06/14 08:42:20;;;;;;;15.27;4.90;;;26.00;53.30;;;;;;4980118;28;20047;-86
2021/06/14 08:44:46;;;;;;;10.68;4.20;;;26.20;53.50;;;;;;4976894;28;20038;-86
2021/06/14 08:47:12;;;;;;;15.50;5.28;;;26.30;54.20;;;;;;4975725;28;20491;-86
2021/06/14 08:49:38;;;;;;;22.27;4.90;;;26.30;53.20;;;;;;4978560;28;20140;-87
2021/06/14 08:52:05;;;;;;;18.80;4.88;;;26.50;52.20;;;;;;4978861;28;20053;-86
2021/06/14 08:54:32;;;;;;;7.40;3.60;;;26.50;52.70;;;;;;4976184;28;20049;-86
2021/06/14 08:56:59;;;;;;;11.23;3.70;;;26.90;51.00;;;;;;4974850;28;20034;-86
2021/06/14 08:59:25;;;;;;;9.73;4.30;;;26.70;53.70;;;;;;4979746;28;20100;-85
2021/06/14 09:01:51;;;;;;;6.70;3.75;;;26.80;52.90;;;;;;4974234;28;20587;-85
2021/06/14 09:04:19;;;;;;;24.42;5.15;;;26.80;53.00;;;;;;4975728;28;20343;-86
2021/06/14 09:06:45;;;;;;;11.57;4.53;;;27.00;51.00;;;;;;4977593;28;20687;-85
2021/06/14 09:09:10;;;;;;;12.73;4.90;;;27.10;52.50;;;;;;4976338;28;20039;-86
2021/06/14 09:11:47;;;;;;;14.13;4.63;;;27.30;53.60;;;;;;4979963;28;20057;-85
2021/06/14 09:14:18;;;;;;;11.52;4.28;;;27.50;51.80;;;;;;4979616;28;20046;-86
2021/06/14 09:16:44;;;;;;;8.57;4.20;;;27.50;52.90;;;;;;4973411;28;20070;-86
2021/06/14 09:19:27;;;;;;;12.07;4.90;;;27.80;51.00;;;;;;4976767;28;20406;-83
2021/06/14 09:21:56;;;;;;;8.63;4.63;;;27.50;49.60;;;;;;4975965;28;20051;-85
2021/06/14 09:24:25;;;;;;;14.07;5.93;;;27.50;52.00;;;;;;4979263;28;20042;-86
2021/06/14 09:26:52;;;;;;;29.33;7.75;;;27.40;51.10;;;;;;4975258;28;20044;-86
2021/06/14 09:29:28;;;;;;;16.50;5.85;;;27.80;54.60;;;;;;4973344;28;20716;-86
2021/06/14 09:32:11;;;;;;;12.55;5.60;;;28.00;51.10;;;;;;4978886;28;20038;-86
2021/06/14 09:34:41;;;;;;;15.05;5.50;;;28.00;50.80;;;;;;4974988;28;20536;-86
2021/06/14 09:37:11;;;;;;;15.27;4.95;;;28.10;49.60;;;;;;4971743;28;20125;-85
2021/06/14 09:39:40;;;;;;;16.30;4.88;;;28.20;51.40;;;;;;4979228;28;20035;-85
2021/06/14 09:42:32;;;;;;;10.23;4.40;;;28.30;51.70;;;;;;4974826;28;20944;-86
2021/06/14 09:45:06;;;;;;;7.75;4.40;;;28.20;51.20;;;;;;4972286;28;20395;-86
2021/06/14 09:47:32;;;;;;;5.72;3.83;;;28.30;49.60;;;;;;4977725;28;20042;-85
2021/06/14 09:50:01;;;;;;;13.63;4.95;;;28.20;49.80;;;;;;4980343;28;20041;-86
2021/06/14 09:52:27;;;;;;;38.30;5.65;;;28.30;49.90;;;;;;4976073;28;20035;-88
2021/06/14 09:55:05;;;;;;;12.88;4.60;;;28.30;47.80;;;;;;4975331;28;21317;-86
2021/06/14 09:57:31;;;;;;;13.75;4.50;;;28.30;48.70;;;;;;4973173;28;20034;-85
2021/06/14 10:00:11;;;;;;;10.05;4.68;;;28.30;48.80;;;;;;4972758;28;20419;-84
2021/06/14 10:02:37;;;;;;;34.90;5.93;;;28.30;48.50;;;;;;4978498;28;20043;-86
2021/06/14 10:05:17;;;;;;;21.52;5.68;;;28.30;49.10;;;;;;4975976;28;20046;-86
2021/06/14 10:07:51;;;;;;;10.25;4.07;;;28.20;48.80;;;;;;4975040;28;20043;-85
2021/06/14 10:10:22;;;;;;;8.35;3.72;;;28.20;50.20;;;;;;4974183;28;20039;-87
2021/06/14 10:12:53;;;;;;;13.27;3.83;;;28.30;50.90;;;;;;4975379;28;20042;-86
2021/06/14 10:15:35;;;;;;;17.98;4.80;;;28.40;51.50;;;;;;4975953;28;20046;-85
2021/06/14 10:18:03;;;;;;;9.93;4.68;;;28.60;49.10;;;;;;4975025;28;20045;-85
2021/06/14 10:20:30;;;;;;;8.70;4.82;;;28.70;47.50;;;;;;4976143;28;20401;-87
2021/06/14 10:22:59;;;;;;;6.43;3.95;;;28.70;47.70;;;;;;4975248;28;20045;-86
2021/06/14 10:25:26;;;;;;;10.18;3.63;;;28.80;51.30;;;;;;4974342;28;20545;-87
2021/06/14 10:27:53;;;;;;;9.15;4.22;;;29.00;51.70;;;;;;4981366;28;20069;-85
2021/06/14 10:30:20;;;;;;;12.02;4.63;;;29.10;47.80;;;;;;4975030;28;20046;-87
2021/06/14 10:32:46;;;;;;;13.88;4.70;;;29.10;47.40;;;;;;4977398;28;20146;-85
2021/06/14 10:35:15;;;;;;;9.05;4.22;;;29.10;47.40;;;;;;4977397;28;20038;-85
2021/06/14 10:37:45;;;;;;;14.82;4.55;;;29.00;50.10;;;;;;4975586;28;20065;-87
2021/06/14 10:40:13;;;;;;;9.35;3.58;;;29.00;49.40;;;;;;4974185;28;20042;-84
2021/06/14 10:43:13;;;;;;;6.60;4.20;;;29.10;49.50;;;;;;4979270;28;20066;-84
2021/06/14 10:45:40;;;;;;;9.05;3.42;;;29.30;51.10;;;;;;4978682;28;20042;-85
2021/06/14 10:48:10;;;;;;;9.38;4.00;;;29.40;46.80;;;;;;4979485;28;20121;-85
2021/06/14 10:50:56;;;;;;;9.23;3.33;;;29.40;46.90;;;;;;4963727;28;20061;-83
2021/06/14 10:53:23;;;;;;;16.83;4.53;;;29.30;48.60;;;;;;4981321;28;20064;-85
2021/06/14 10:56:14;;;;;;;26.55;4.18;;;29.30;50.00;;;;;;4974982;28;20143;-84
2021/06/14 10:58:43;;;;;;;11.25;3.45;;;29.50;48.70;;;;;;4973882;28;20129;-85
2021/06/14 11:01:15;;;;;;;14.45;4.53;;;29.50;49.20;;;;;;4975982;28;20193;-85
2021/06/14 11:03:42;;;;;;;12.07;3.55;;;29.40;48.40;;;;;;4974565;28;20514;-84
2021/06/14 11:06:16;;;;;;;9.88;3.85;;;29.50;50.10;;;;;;4970680;28;20097;-85
2021/06/14 11:08:42;;;;;;;12.40;3.63;;;29.50;46.80;;;;;;4975464;28;20054;-86
2021/06/14 11:11:08;;;;;;;44.30;6.15;;;29.20;46.60;;;;;;4968698;28;20047;-86
2021/06/14 11:13:46;;;;;;;8.27;3.60;;;29.20;47.90;;;;;;4972606;28;20038;-84
2021/06/14 11:16:12;;;;;;;8.52;4.30;;;29.10;46.90;;;;;;4972965;28;20045;-84
2021/06/14 11:18:38;;;;;;;13.55;4.68;;;29.10;49.40;;;;;;4987767;28;20071;-82
2021/06/14 11:21:14;;;;;;;15.10;4.60;;;29.10;48.40;;;;;;4972418;28;20089;-85
2021/06/14 11:23:43;;;;;;;13.60;4.40;;;29.10;48.20;;;;;;4975168;28;20054;-84
2021/06/14 11:26:11;;;;;;;14.55;3.58;;;29.10;48.80;;;;;;4975614;28;20114;-84
2021/06/14 11:28:45;;;;;;;6.63;3.05;;;29.20;48.10;;;;;;4980308;28;20565;-84
2021/06/14 11:31:23;;;;;;;8.77;3.50;;;29.10;50.90;;;;;;4976751;28;20045;-84
2021/06/14 11:33:53;;;;;;;10.05;3.75;;;29.20;51.00;;;;;;4976882;28;21551;-85
2021/06/14 11:36:32;;;;;;;9.55;3.67;;;29.40;48.70;;;;;;4978352;28;20088;-85
2021/06/14 11:39:14;;;;;;;23.20;4.68;;;29.40;49.50;;;;;;4977784;28;20043;-84
2021/06/14 11:41:40;;;;;;;12.02;4.20;;;29.30;48.00;;;;;;4977950;28;20086;-84
2021/06/14 11:44:24;;;;;;;8.88;3.00;;;29.20;48.50;;;;;;4976056;28;20133;-83
2021/06/14 11:47:25;;;;;;;11.32;3.10;;;29.20;47.30;;;;;;4965196;28;20094;-84
2021/06/14 11:49:53;;;;;;;9.35;3.38;;;29.20;49.40;;;;;;4969285;28;20054;-84
2021/06/14 11:52:32;;;;;;;9.45;4.00;;;29.30;48.90;;;;;;4978550;28;20050;-84
2021/06/14 11:54:59;;;;;;;7.70;2.85;;;29.40;47.60;;;;;;4977780;28;20042;-83
2021/06/14 11:57:28;;;;;;;7.15;3.25;;;29.40;47.90;;;;;;4982796;28;20601;-84
2021/06/14 11:59:56;;;;;;;9.52;3.38;;;29.40;47.60;;;;;;4981256;28;20034;-84
2021/06/14 12:02:26;;;;;;;11.30;3.50;;;29.60;46.40;;;;;;4980770;28;20112;-83
2021/06/14 12:05:02;;;;;;;12.65;3.67;;;29.60;46.80;;;;;;4980814;28;20041;-84
2021/06/14 12:07:29;;;;;;;8.73;2.53;;;29.30;49.00;;;;;;4978981;28;20042;-84
2021/06/14 12:09:57;;;;;;;7.65;2.97;;;29.60;47.70;;;;;;4980787;28;20041;-83
2021/06/14 12:12:23;;;;;;;9.48;2.97;;;29.60;48.50;;;;;;4978234;28;20038;-83
2021/06/14 12:14:53;;;;;;;9.07;3.25;;;29.60;48.50;;;;;;4977884;28;20407;-83
2021/06/14 12:17:35;;;;;;;6.88;3.50;;;29.60;48.40;;;;;;4978739;28;20041;-84
2021/06/14 12:20:04;;;;;;;14.05;6.70;;;29.70;47.00;;;;;;4974918;28;20213;-84
2021/06/14 12:22:31;;;;;;;7.03;3.38;;;29.50;49.50;;;;;;4961729;28;20145;-84
2021/06/14 12:25:19;;;;;;;6.50;3.42;;;29.50;47.40;;;;;;4974016;28;20510;-84
2021/06/14 12:27:44;;;;;;;11.57;3.67;;;29.50;45.90;;;;;;4979336;28;20517;-84
2021/06/14 12:30:12;;;;;;;9.55;3.47;;;29.40;44.80;;;;;;4979274;28;20145;-85
2021/06/14 12:33:04;;;;;;;7.65;3.35;;;29.30;48.10;;;;;;4971885;28;20058;-85
2021/06/14 12:35:56;;;;;;;7.47;3.78;;;29.40;48.50;;;;;;4975913;28;20038;-84
2021/06/14 12:39:06;;;;;;;9.18;3.28;;;29.40;47.60;;;;;;4961715;28;20038;-84
2021/06/14 12:41:33;;;;;;;12.15;4.10;;;29.50;48.30;;;;;;4977321;28;20491;-84
2021/06/14 12:44:00;;;;;;;13.25;4.10;;;29.30;48.60;;;;;;4973286;28;20034;-84
2021/06/14 12:46:34;;;;;;;7.63;3.58;;;29.40;49.50;;;;;;4976148;28;20034;-85
2021/06/14 12:49:00;;;;;;;9.05;4.95;;;29.30;49.80;;;;;;4975022;28;20530;-84
2021/06/14 12:51:38;;;;;;;15.10;4.28;;;29.20;48.30;;;;;;4974333;28;20038;-84
2021/06/14 12:54:04;;;;;;;9.77;4.82;;;29.20;49.30;;;;;;4980880;28;20038;-85
2021/06/14 12:56:34;;;;;;;8.30;4.20;;;29.20;49.40;;;;;;4976724;28;20150;-85
2021/06/14 12:59:01;;;;;;;10.90;4.90;;;29.30;50.10;;;;;;4979791;28;20528;-85
2021/06/14 13:01:27;;;;;;;9.43;4.72;;;29.10;48.60;;;;;;4975012;28;20065;-85
2021/06/14 13:03:52;;;;;;;20.80;5.63;;;29.10;47.30;;;;;;4975774;28;20181;-85
2021/06/14 13:06:18;;;;;;;11.68;5.68;;;29.10;48.60;;;;;;4974948;28;20502;-84
2021/06/14 13:08:47;;;;;;;11.25;4.75;;;28.80;50.00;;;;;;4975497;28;20113;-86
2021/06/14 13:11:14;;;;;;;12.43;4.00;;;29.10;51.40;;;;;;4977102;28;20046;-85
2021/06/14 13:13:45;;;;;;;10.73;4.82;;;28.80;52.50;;;;;;4973107;28;20035;-85
2021/06/14 13:16:16;;;;;;;8.73;4.35;;;28.90;51.20;;;;;;4975111;28;20509;-84
2021/06/14 13:18:53;;;;;;;10.13;4.18;;;28.80;50.70;;;;;;4975104;28;20077;-84
2021/06/14 13:21:21;;;;;;;8.40;4.43;;;28.90;52.10;;;;;;4977230;28;20049;-84
2021/06/14 13:23:56;;;;;;;12.60;4.53;;;29.10;50.70;;;;;;4974319;28;20046;-84
2021/06/14 13:26:25;;;;;;;11.80;4.40;;;29.10;51.00;;;;;;4974142;28;20035;-85
2021/06/14 13:29:25;;;;;;;7.40;3.85;;;29.10;51.60;;;;;;4972498;28;20046;-85
2021/06/14 13:32:45;;;;;;;13.48;6.38;;;29.10;51.00;;;;;;4971957;28;20077;-84
2021/06/14 13:35:21;;;;;;;12.80;5.70;;;28.80;49.20;;;;;;4959803;28;20058;-85
2021/06/14 13:37:51;;;;;;;10.05;5.07;;;28.90;51.00;;;;;;4979114;28;20042;-84
2021/06/14 13:40:31;;;;;;;11.18;4.78;;;29.00;51.80;;;;;;4974677;28;20050;-86
2021/06/14 13:44:22;;;;;;;11.57;4.50;;;29.20;52.10;;;;;;4974367;28;20066;-84
2021/06/14 13:47:24;;;;;;;13.15;4.68;;;29.20;48.40;;;;;;4971167;28;20495;-85
2021/06/14 13:50:19;;;;;;;13.27;5.38;;;29.00;49.50;;;;;;4973615;28;20049;-86
2021/06/14 13:52:45;;;;;;;27.88;5.78;;;29.10;48.90;;;;;;4973652;28;20042;-85
2021/06/14 13:55:59;;;;;;;13.45;3.67;;;29.10;51.00;;;;;;4975735;28;20047;-85
2021/06/14 13:58:59;;;;;;;21.13;4.55;;;29.20;51.10;;;;;;4975853;28;20546;-84
2021/06/14 14:01:44;;;;;;;9.18;4.00;;;29.40;48.40;;;;;;4962086;28;20742;-85
2021/06/14 14:04:28;;;;;;;10.48;4.78;;;29.50;52.30;;;;;;4974114;28;20554;-84
2021/06/14 14:07:01;;;;;;;7.70;4.05;;;29.50;49.80;;;;;;4973901;28;20042;-84
2021/06/14 14:09:34;;;;;;;11.13;4.93;;;29.50;48.50;;;;;;4978536;28;20125;-84
2021/06/14 14:12:16;;;;;;;9.88;4.15;;;29.40;48.70;;;;;;4972721;28;20080;-85
2021/06/14 14:14:42;;;;;;;11.85;3.92;;;29.50;49.00;;;;;;4978460;28;20041;-85
2021/06/14 14:17:08;;;;;;;9.23;3.83;;;29.50;49.50;;;;;;4973632;28;20050;-86
2021/06/14 14:19:51;;;;;;;18.70;4.50;;;29.50;49.80;;;;;;4978281;28;20034;-84
2021/06/14 14:22:27;;;;;;;10.80;4.43;;;29.50;51.10;;;;;;4976066;28;20073;-85
2021/06/14 14:24:53;;;;;;;11.60;4.70;;;29.60;50.40;;;;;;4975201;28;20134;-86
2021/06/14 14:27:19;;;;;;;10.45;4.80;;;29.50;49.20;;;;;;4976606;28;20491;-85
2021/06/14 14:29:52;;;;;;;14.52;4.13;;;29.40;48.60;;;;;;4976382;28;20534;-86
2021/06/14 14:32:19;;;;;;;11.90;4.95;;;29.30;50.50;;;;;;4974996;28;20058;-85
2021/06/14 14:34:52;;;;;;;9.93;5.20;;;29.20;50.30;;;;;;4974875;28;20065;-85
2021/06/14 14:37:54;;;;;;;9.82;5.18;;;29.30;53.60;;;;;;4956332;28;20077;-85
2021/06/14 14:40:55;;;;;;;12.93;4.72;;;29.30;48.70;;;;;;4958916;28;20074;-85
2021/06/14 14:43:26;;;;;;;14.73;4.78;;;29.30;50.30;;;;;;4963537;28;20050;-85